Time;durP1;ratioP1;P1;durP2;ratioP2;P2;SDS_P1;SDS_P2;PMS_P1;PMS_P2;Temp;Humidity;BMP_temperature;BMP_pressure;BME280_temperature;BME280_humidity;BME280_pressure;Samples;Min_cycle;Max_cycle;Signal;HPM_P1;HPM_P2
2023/10/12 00:01:57;;;;;;;15.93;6.32;;;19.80;99.90;;;;;;5037767;28;20124;-75
2023/10/12 00:04:43;;;;;;;11.98;5.85;;;19.80;99.90;;;;;;5042846;28;20478;-75
2023/10/12 00:07:16;;;;;;;16.80;6.63;;;19.80;99.90;;;;;;5035868;28;20025;-75
2023/10/12 00:09:48;;;;;;;9.50;6.78;;;19.80;99.90;;;;;;5033197;28;20028;-75
2023/10/12 00:12:23;;;;;;;14.57;6.90;;;19.80;99.90;;;;;;5033714;28;20053;-76
2023/10/12 00:14:55;;;;;;;13.52;7.43;;;19.80;99.90;;;;;;5021639;28;20026;-75
2023/10/12 00:17:23;;;;;;;10.80;7.35;;;19.80;99.90;;;;;;5037413;28;20021;-75
2023/10/12 00:19:52;;;;;;;16.55;7.68;;;19.80;99.90;;;;;;5022715;28;20014;-75
2023/10/12 00:22:19;;;;;;;12.75;7.18;;;19.90;99.90;;;;;;5019110;28;20488;-75
2023/10/12 00:24:45;;;;;;;12.90;6.47;;;19.80;99.90;;;;;;5034963;28;20049;-76
2023/10/12 00:27:14;;;;;;;11.18;7.07;;;19.90;99.90;;;;;;5018834;28;20064;-75
2023/10/12 00:29:41;;;;;;;9.15;6.75;;;19.80;99.90;;;;;;5020881;28;20055;-75
2023/10/12 00:32:07;;;;;;;13.13;7.25;;;19.80;99.90;;;;;;5021176;28;20508;-75
2023/10/12 00:34:54;;;;;;;18.60;7.30;;;19.90;99.90;;;;;;5040015;28;20107;-75
2023/10/12 00:37:19;;;;;;;9.25;6.28;;;19.90;99.90;;;;;;5039998;28;22780;-75
2023/10/12 00:39:47;;;;;;;11.52;6.57;;;19.90;99.90;;;;;;5038830;28;20056;-75
2023/10/12 00:42:17;;;;;;;12.40;7.05;;;19.90;99.90;;;;;;5039104;28;20104;-75
2023/10/12 00:44:47;;;;;;;13.50;7.47;;;19.90;99.90;;;;;;5037824;28;20024;-75
2023/10/12 00:47:19;;;;;;;14.10;7.07;;;19.90;99.90;;;;;;5020577;28;20021;-75
2023/10/12 00:49:48;;;;;;;14.15;8.30;;;19.90;99.90;;;;;;5039683;28;20037;-76
2023/10/12 00:52:26;;;;;;;14.93;8.25;;;19.80;99.90;;;;;;5036076;28;20091;-76
2023/10/12 00:54:58;;;;;;;10.25;7.30;;;19.90;99.90;;;;;;5018418;28;20135;-76
2023/10/12 00:57:24;;;;;;;12.88;7.78;;;19.80;99.90;;;;;;5016117;28;20057;-75
2023/10/12 00:59:52;;;;;;;12.05;6.93;;;19.80;99.90;;;;;;5034006;28;20470;-76
2023/10/12 01:02:23;;;;;;;14.52;7.68;;;19.70;99.90;;;;;;5035057;28;20021;-75
2023/10/12 01:04:53;;;;;;;19.02;8.73;;;19.70;99.90;;;;;;5020107;28;20768;-73
2023/10/12 01:07:20;;;;;;;17.13;8.23;;;19.70;99.90;;;;;;5035411;28;20033;-73
2023/10/12 01:09:48;;;;;;;15.38;8.80;;;19.60;99.90;;;;;;5034536;28;20020;-73
2023/10/12 01:12:14;;;;;;;13.23;9.00;;;19.60;99.90;;;;;;5033198;28;22180;-73
2023/10/12 01:14:47;;;;;;;15.50;9.93;;;19.50;99.90;;;;;;5039294;28;20025;-73
2023/10/12 01:17:29;;;;;;;;;;;19.60;99.90;;;;;;5036370;28;20021;-72
2023/10/12 01:19:55;;;;;;;16.50;10.18;;;19.50;99.90;;;;;;5036781;28;19955;-73
2023/10/12 01:22:27;;;;;;;17.77;9.98;;;19.60;99.90;;;;;;5035185;28;20092;-73
2023/10/12 01:27:22;;;;;;;21.75;10.93;;;19.50;99.90;;;;;;5041647;28;20025;-73
2023/10/12 01:29:52;;;;;;;17.92;10.70;;;19.50;99.90;;;;;;5032106;28;20076;-73
2023/10/12 01:34:56;;;;;;;19.88;11.32;;;19.30;99.90;;;;;;5041195;28;20120;-72
2023/10/12 01:37:25;;;;;;;22.27;12.35;;;19.40;99.90;;;;;;5036932;28;20032;-73
2023/10/12 01:40:44;;;;;;;21.92;12.43;;;19.40;99.90;;;;;;5034310;28;20550;-73
2023/10/12 01:48:05;;;;;;;24.17;13.82;;;19.30;99.90;;;;;;5035652;28;20516;-72
2023/10/12 01:50:33;;;;;;;22.63;14.63;;;19.30;99.90;;;;;;5038538;28;20022;-72
2023/10/12 01:53:00;;;;;;;26.52;14.85;;;19.20;99.90;;;;;;5039474;28;20611;-74
2023/10/12 01:55:30;;;;;;;23.88;14.68;;;19.20;99.90;;;;;;5043261;28;20164;-73
2023/10/12 01:57:59;;;;;;;22.52;13.60;;;19.20;99.90;;;;;;5037139;28;20021;-73
2023/10/12 02:00:38;;;;;;;24.15;15.93;;;19.10;99.90;;;;;;5038696;28;20033;-73
2023/10/12 02:03:18;;;;;;;27.15;17.55;;;19.10;99.90;;;;;;5039594;28;20025;-74
2023/10/12 02:05:58;;;;;;;22.88;14.98;;;19.20;99.90;;;;;;5026882;28;20108;-74
2023/10/12 02:08:46;;;;;;;31.00;18.15;;;19.20;99.90;;;;;;5039399;28;20037;-74
2023/10/12 02:13:44;;;;;;;26.80;18.10;;;19.10;99.90;;;;;;5038579;28;20048;-73
2023/10/12 02:16:13;;;;;;;28.65;17.63;;;19.10;99.90;;;;;;5037839;28;20057;-73
2023/10/12 02:18:39;;;;;;;27.27;16.75;;;19.10;99.90;;;;;;5038169;28;20096;-73
2023/10/12 02:21:11;;;;;;;30.10;18.63;;;19.10;99.90;;;;;;5039402;28;20029;-74
2023/10/12 02:23:53;;;;;;;33.88;17.60;;;19.10;99.90;;;;;;5039149;28;20119;-73
2023/10/12 02:27:07;;;;;;;33.13;18.25;;;19.00;99.90;;;;;;5020013;28;20040;-74
2023/10/12 02:32:15;;;;;;;29.17;19.20;;;19.00;99.90;;;;;;5038314;28;20052;-74
2023/10/12 02:34:31;;;;;;;23.88;16.88;;;19.00;99.90;;;;;;5039885;28;20033;-75
2023/10/12 02:39:40;;;;;;;23.83;16.15;;;18.80;99.90;;;;;;5044526;28;20075;-73
2023/10/12 02:45:03;;;;;;;27.65;17.88;;;18.70;99.90;;;;;;5038654;28;20021;-73
2023/10/12 02:47:39;;;;;;;29.83;17.88;;;18.80;99.90;;;;;;5040302;28;20032;-73
2023/10/12 02:52:36;;;;;;;28.55;17.00;;;18.70;99.90;;;;;;5035083;28;20049;-73
2023/10/12 02:55:18;;;;;;;28.77;18.40;;;18.80;99.90;;;;;;5039768;28;20040;-73
2023/10/12 02:57:53;;;;;;;31.52;17.98;;;18.80;99.90;;;;;;5039069;28;20037;-72
2023/10/12 03:00:22;;;;;;;32.95;19.05;;;18.80;99.90;;;;;;5035812;28;20075;-73
2023/10/12 03:02:51;;;;;;;37.53;18.65;;;18.80;99.90;;;;;;5016824;28;20484;-72
2023/10/12 03:05:33;;;;;;;26.17;18.83;;;18.80;99.90;;;;;;5038342;28;22742;-73
2023/10/12 03:08:06;;;;;;;27.13;18.00;;;18.80;99.90;;;;;;5035189;28;20021;-73
2023/10/12 03:10:32;;;;;;;26.40;16.63;;;18.80;99.90;;;;;;5042184;28;20029;-74
2023/10/12 03:13:04;;;;;;;33.28;19.33;;;18.60;99.90;;;;;;5036683;28;20029;-73
2023/10/12 03:15:41;;;;;;;31.80;19.88;;;18.50;99.90;;;;;;5035493;28;20025;-73
2023/10/12 03:18:11;;;;;;;25.23;17.00;;;18.50;99.90;;;;;;5035716;28;20052;-72
2023/10/12 03:20:38;;;;;;;24.58;18.70;;;18.40;99.90;;;;;;5033028;28;20033;-73
2023/10/12 03:23:12;;;;;;;32.78;21.30;;;18.50;99.90;;;;;;5035247;28;20028;-73
2023/10/12 03:25:46;;;;;;;34.00;20.10;;;18.50;99.90;;;;;;5035263;28;20024;-73
2023/10/12 03:28:28;;;;;;;30.75;19.25;;;18.40;99.90;;;;;;5036115;28;20555;-73
2023/10/12 03:30:55;;;;;;;30.15;19.63;;;18.50;99.90;;;;;;5035733;28;20021;-72
2023/10/12 03:33:27;;;;;;;32.53;21.42;;;18.50;99.90;;;;;;5039647;28;20079;-72
2023/10/12 03:36:13;;;;;;;35.63;19.00;;;18.60;99.90;;;;;;5036083;28;20021;-73
2023/10/12 03:38:40;;;;;;;36.75;20.73;;;18.50;99.90;;;;;;5038440;28;20032;-72
2023/10/12 03:44:05;;;;;;;34.20;20.05;;;18.50;99.90;;;;;;5036692;28;20040;-73
2023/10/12 03:46:32;;;;;;;38.00;20.95;;;18.40;99.90;;;;;;5035582;28;20344;-72
2023/10/12 03:49:09;;;;;;;32.22;22.42;;;18.30;99.90;;;;;;5023904;28;20028;-73
2023/10/12 03:51:40;;;;;;;35.63;21.70;;;18.30;99.90;;;;;;5037332;28;20036;-73
2023/10/12 03:56:51;;;;;;;41.05;20.13;;;18.30;99.90;;;;;;5039785;28;20032;-72
2023/10/12 03:59:27;;;;;;;32.28;20.13;;;18.40;99.90;;;;;;5036621;28;20030;-72
2023/10/12 04:01:54;;;;;;;34.70;20.60;;;18.40;99.90;;;;;;5038044;28;20473;-73
2023/10/12 04:04:34;;;;;;;30.73;19.63;;;18.40;99.90;;;;;;5037807;28;20087;-72
2023/10/12 04:09:42;;;;;;;26.92;17.38;;;18.30;99.90;;;;;;5038329;28;20032;-72
2023/10/12 04:13:07;;;;;;;26.65;17.75;;;18.30;99.90;;;;;;5039832;28;20095;-72
2023/10/12 04:14:59;;;;;;;33.00;19.40;;;18.30;99.90;;;;;;5025406;28;20032;-72
2023/10/12 04:23:48;;;;;;;30.05;17.10;;;18.20;99.90;;;;;;5038511;28;20037;-73
2023/10/12 04:28:09;;;;;;;33.15;17.17;;;18.20;99.90;;;;;;5034767;28;20034;-74
2023/10/12 04:33:19;;;;;;;26.30;17.13;;;18.20;99.90;;;;;;5038922;28;20033;-73
2023/10/12 04:43:39;;;;;;;28.80;17.80;;;18.10;99.90;;;;;;5040034;28;21037;-72
2023/10/12 04:48:46;;;;;;;30.42;16.73;;;18.30;99.90;;;;;;5034259;28;20095;-72
2023/10/12 04:51:18;;;;;;;25.63;16.98;;;18.20;99.90;;;;;;5035703;28;20041;-71
2023/10/12 04:54:05;;;;;;;28.88;16.83;;;18.10;99.90;;;;;;5039351;28;20075;-72
2023/10/12 04:56:38;;;;;;;26.55;17.15;;;18.10;99.90;;;;;;5039520;28;20034;-73
2023/10/12 05:04:36;;;;;;;24.67;16.63;;;18.10;99.90;;;;;;5042189;28;20040;-73
2023/10/12 05:09:49;;;;;;;25.60;16.63;;;18.20;99.90;;;;;;5034400;28;20049;-73
2023/10/12 05:12:18;;;;;;;30.48;18.02;;;18.20;99.90;;;;;;5037742;28;20087;-72
2023/10/12 05:14:44;;;;;;;22.67;15.82;;;18.20;99.90;;;;;;5035597;28;20059;-73
2023/10/12 05:17:10;;;;;;;29.10;15.85;;;18.20;99.90;;;;;;5036358;28;20418;-73
2023/10/12 05:19:36;;;;;;;26.45;16.55;;;18.10;99.90;;;;;;5036137;28;20013;-72
2023/10/12 05:22:02;;;;;;;28.60;16.23;;;18.10;99.90;;;;;;5036576;28;20458;-72
2023/10/12 05:24:28;;;;;;;25.00;15.25;;;18.10;99.90;;;;;;5018131;28;20033;-73
2023/10/12 05:27:09;;;;;;;28.23;15.18;;;18.10;99.90;;;;;;5035083;28;20053;-72
2023/10/12 05:29:38;;;;;;;25.67;17.05;;;18.10;99.90;;;;;;5045988;28;20022;-72
2023/10/12 05:32:18;;;;;;;24.98;17.58;;;18.10;99.90;;;;;;5039427;28;20243;-73
2023/10/12 05:34:45;;;;;;;24.15;16.10;;;18.20;99.90;;;;;;5041600;28;20028;-72
2023/10/12 05:39:47;;;;;;;24.05;16.98;;;18.20;99.90;;;;;;5041663;28;20029;-73
2023/10/12 05:42:19;;;;;;;31.67;17.93;;;18.30;99.90;;;;;;5040672;28;20032;-72
2023/10/12 05:44:48;;;;;;;24.50;17.43;;;18.20;99.90;;;;;;5040595;28;20383;-73
2023/10/12 05:47:15;;;;;;;24.75;15.70;;;18.10;99.90;;;;;;5040450;28;20272;-74
2023/10/12 05:49:41;;;;;;;25.80;17.95;;;18.00;99.90;;;;;;5042080;28;20029;-73
2023/10/12 05:52:10;;;;;;;24.08;18.00;;;18.10;99.90;;;;;;5040021;28;20041;-74
2023/10/12 05:54:39;;;;;;;29.65;18.42;;;18.10;99.90;;;;;;5040894;28;20429;-73
2023/10/12 05:57:16;;;;;;;23.30;15.27;;;18.10;99.90;;;;;;5037599;28;20044;-75
2023/10/12 05:59:42;;;;;;;25.20;17.13;;;18.20;99.90;;;;;;5036236;28;20021;-75
2023/10/12 06:02:10;;;;;;;25.77;16.92;;;18.20;99.90;;;;;;5042539;28;20025;-73
2023/10/12 06:04:36;;;;;;;27.35;16.83;;;18.20;99.90;;;;;;5040616;28;20024;-74
2023/10/12 06:07:03;;;;;;;24.95;15.73;;;18.20;99.90;;;;;;5019064;28;20021;-74
2023/10/12 06:09:52;;;;;;;29.23;18.05;;;18.20;99.90;;;;;;5024103;28;20098;-73
2023/10/12 06:12:21;;;;;;;23.95;15.00;;;18.20;99.90;;;;;;5042467;28;20126;-73
2023/10/12 06:14:53;;;;;;;29.20;17.88;;;18.20;99.90;;;;;;5041796;28;20023;-73
2023/10/12 06:17:30;;;;;;;28.08;16.42;;;18.20;99.90;;;;;;5039352;28;20036;-73
2023/10/12 06:20:10;;;;;;;25.50;14.95;;;18.20;99.90;;;;;;5023021;28;20028;-73
2023/10/12 06:22:38;;;;;;;28.10;15.90;;;18.20;99.90;;;;;;5022710;28;20040;-74
2023/10/12 06:25:08;;;;;;;26.30;14.63;;;18.20;99.90;;;;;;5040633;28;20110;-76
2023/10/12 06:27:33;;;;;;;22.02;15.73;;;18.10;99.90;;;;;;5040576;28;20466;-73
2023/10/12 06:30:16;;;;;;;25.42;15.55;;;18.20;99.90;;;;;;5020675;28;20014;-74
2023/10/12 06:32:42;;;;;;;25.77;16.67;;;18.20;99.90;;;;;;5038546;28;20034;-74
2023/10/12 06:45:51;;;;;;;24.52;15.77;;;18.10;99.90;;;;;;5044147;28;20036;-74
2023/10/12 06:51:02;;;;;;;29.83;16.98;;;18.10;99.90;;;;;;5038423;28;20091;-74
2023/10/12 06:53:35;;;;;;;29.50;16.55;;;18.10;99.90;;;;;;5042599;28;20037;-74
2023/10/12 06:56:15;;;;;;;;;;;18.10;99.90;;;;;;5040325;28;20025;-73
2023/10/12 06:59:08;;;;;;;22.88;15.68;;;18.00;99.90;;;;;;5043266;28;20254;-74
2023/10/12 07:01:53;;;;;;;24.55;16.40;;;18.10;99.90;;;;;;5040096;28;20104;-77
2023/10/12 07:04:39;;;;;;;28.00;15.88;;;18.20;99.90;;;;;;5022002;28;20030;-75
2023/10/12 07:07:10;;;;;;;23.92;14.90;;;18.20;99.90;;;;;;5040338;28;20021;-74
2023/10/12 07:09:39;;;;;;;27.20;15.82;;;18.10;99.90;;;;;;5041322;28;20048;-75
2023/10/12 07:12:06;;;;;;;29.65;17.52;;;18.10;99.90;;;;;;5020991;28;20037;-77
2023/10/12 07:14:34;;;;;;;24.67;15.57;;;18.00;99.90;;;;;;5037409;28;20021;-73
2023/10/12 07:17:02;;;;;;;26.15;15.75;;;18.00;99.90;;;;;;5038163;28;20082;-76
2023/10/12 07:19:28;;;;;;;31.55;16.52;;;18.00;99.90;;;;;;5036360;28;20478;-74
2023/10/12 07:21:55;;;;;;;21.05;13.85;;;18.10;99.90;;;;;;5040483;28;20064;-74
2023/10/12 07:24:25;;;;;;;24.48;14.88;;;18.10;99.90;;;;;;5041057;28;20131;-74
2023/10/12 07:26:51;;;;;;;27.75;15.68;;;18.10;99.90;;;;;;5036537;28;20045;-74
2023/10/12 07:29:35;;;;;;;24.80;14.75;;;18.20;99.90;;;;;;5039961;28;20418;-73
2023/10/12 07:32:16;;;;;;;27.50;17.05;;;18.30;99.90;;;;;;5041178;28;20032;-73
2023/10/12 07:34:42;;;;;;;27.60;15.70;;;18.20;99.90;;;;;;5040371;28;20087;-76
2023/10/12 07:37:08;;;;;;;30.27;15.40;;;18.20;99.90;;;;;;5037714;28;20052;-73
2023/10/12 07:39:42;;;;;;;24.30;14.38;;;18.30;99.90;;;;;;5038395;28;20053;-74
2023/10/12 07:42:12;;;;;;;23.50;15.20;;;18.30;99.90;;;;;;5021620;28;20017;-75
2023/10/12 07:44:53;;;;;;;25.52;13.88;;;18.30;99.90;;;;;;5020689;28;20120;-74
2023/10/12 07:47:29;;;;;;;28.38;16.63;;;18.40;99.90;;;;;;5037444;28;20070;-74
2023/10/12 07:50:09;;;;;;;22.85;15.93;;;18.40;99.90;;;;;;5023588;28;20121;-74
2023/10/12 07:55:06;;;;;;;24.88;15.63;;;18.50;99.90;;;;;;5039176;28;20047;-74
2023/10/12 07:57:36;;;;;;;27.48;15.25;;;18.40;99.90;;;;;;5019595;28;20163;-75
2023/10/12 08:05:24;;;;;;;25.63;13.80;;;18.40;99.90;;;;;;5036916;28;20504;-74
2023/10/12 08:13:15;;;;;;;22.90;13.55;;;18.50;99.90;;;;;;5040580;28;20060;-73
2023/10/12 08:21:22;;;;;;;28.27;14.18;;;18.50;99.90;;;;;;5039435;28;20106;-75
2023/10/12 08:23:50;;;;;;;21.70;14.32;;;18.50;99.90;;;;;;5047100;28;20053;-76
2023/10/12 08:29:09;;;;;;;25.30;13.13;;;18.50;99.90;;;;;;5051286;28;20040;-76
2023/10/12 08:31:43;;;;;;;21.77;12.95;;;18.50;99.90;;;;;;5051725;28;20429;-75
2023/10/12 08:37:36;;;;;;;26.10;14.27;;;18.40;99.90;;;;;;5046170;28;20039;-76
2023/10/12 08:40:08;;;;;;;22.92;13.35;;;18.40;99.90;;;;;;5048898;28;20108;-78
2023/10/12 08:45:08;;;;;;;20.48;12.95;;;18.50;99.90;;;;;;5050127;28;20560;-75
2023/10/12 08:50:05;;;;;;;24.45;13.23;;;18.60;99.90;;;;;;5052236;28;20363;-77
2023/10/12 08:52:31;;;;;;;19.75;13.55;;;18.60;99.90;;;;;;5051127;28;20037;-73
2023/10/12 08:57:56;;;;;;;22.27;12.93;;;18.60;99.90;;;;;;5034070;28;20120;-75
2023/10/12 09:05:41;;;;;;;19.52;12.02;;;18.80;99.90;;;;;;5055962;28;20037;-75
2023/10/12 09:10:49;;;;;;;18.40;12.00;;;18.80;99.90;;;;;;5055992;28;20036;-75
2023/10/12 09:13:28;;;;;;;18.67;10.75;;;18.80;99.90;;;;;;5055357;28;20025;-74
2023/10/12 09:15:56;;;;;;;17.52;10.77;;;18.70;99.90;;;;;;5055062;28;20048;-75
2023/10/12 09:18:24;;;;;;;20.90;12.43;;;18.70;99.90;;;;;;5053569;28;20025;-75
2023/10/12 09:23:28;;;;;;;22.70;12.15;;;18.70;99.90;;;;;;5055903;28;20393;-73
2023/10/12 09:29:03;;;;;;;20.13;11.63;;;18.80;99.90;;;;;;5054298;28;20040;-76
2023/10/12 09:36:37;;;;;;;17.05;11.40;;;18.90;99.90;;;;;;5054983;28;20397;-75
2023/10/12 09:39:11;;;;;;;16.70;11.30;;;18.90;99.90;;;;;;5055208;28;20112;-73
2023/10/12 09:41:54;;;;;;;20.30;10.15;;;19.00;99.90;;;;;;5053766;28;20067;-73
2023/10/12 09:44:26;;;;;;;18.35;9.82;;;19.00;99.90;;;;;;5055061;28;20437;-72
2023/10/12 09:46:55;;;;;;;16.60;10.18;;;19.10;99.90;;;;;;5054891;28;20036;-74
2023/10/12 09:49:22;;;;;;;17.70;11.35;;;19.20;99.90;;;;;;5035593;28;20489;-74
2023/10/12 09:51:59;;;;;;;19.55;11.13;;;19.20;99.90;;;;;;5045730;28;20024;-74
2023/10/12 09:54:33;;;;;;;18.23;10.90;;;19.20;99.90;;;;;;5036656;28;20051;-74
2023/10/12 09:57:04;;;;;;;17.50;11.30;;;19.30;99.90;;;;;;5055334;28;20032;-73
2023/10/12 09:59:31;;;;;;;22.30;12.25;;;19.30;99.90;;;;;;5054298;28;20098;-72
2023/10/12 10:04:45;;;;;;;22.40;12.20;;;19.30;99.90;;;;;;5054512;28;20028;-73
2023/10/12 10:07:26;;;;;;;16.35;12.00;;;19.30;99.90;;;;;;5053813;28;20079;-73
2023/10/12 10:10:05;;;;;;;17.42;11.70;;;19.30;99.90;;;;;;5054606;28;20017;-74
2023/10/12 10:12:35;;;;;;;23.15;12.35;;;19.20;99.90;;;;;;5053884;28;20033;-75
2023/10/12 10:15:10;;;;;;;21.30;11.38;;;19.20;99.90;;;;;;5036878;28;20021;-74
2023/10/12 10:17:46;;;;;;;19.05;12.02;;;19.20;99.90;;;;;;5054549;28;20078;-73
2023/10/12 10:22:56;;;;;;;22.42;10.95;;;19.40;99.90;;;;;;5053924;28;20029;-74
2023/10/12 10:25:45;;;;;;;19.75;11.25;;;19.30;99.90;;;;;;5036166;28;20025;-74
2023/10/12 10:28:23;;;;;;;21.38;11.48;;;19.40;99.90;;;;;;5053798;28;20041;-74
2023/10/12 10:30:52;;;;;;;19.55;10.98;;;19.50;99.90;;;;;;5035368;28;20029;-74
2023/10/12 10:33:23;;;;;;;19.30;9.60;;;19.40;99.90;;;;;;5053775;28;20094;-74
2023/10/12 10:35:57;;;;;;;16.27;10.60;;;19.30;99.90;;;;;;5051345;28;20027;-74
2023/10/12 10:38:34;;;;;;;14.23;9.32;;;19.30;99.90;;;;;;5035377;28;20102;-74
2023/10/12 10:41:18;;;;;;;16.17;10.45;;;19.30;99.90;;;;;;5053740;28;20147;-72
2023/10/12 10:43:44;;;;;;;18.70;10.60;;;19.20;99.90;;;;;;5034193;28;20025;-73
2023/10/12 10:46:10;;;;;;;16.42;9.43;;;19.30;99.90;;;;;;5031749;28;20761;-74
2023/10/12 10:48:40;;;;;;;19.48;10.95;;;19.20;99.90;;;;;;5033799;28;20029;-75
2023/10/12 10:51:18;;;;;;;19.65;10.43;;;19.20;99.90;;;;;;5048306;28;20028;-74
2023/10/12 10:53:52;;;;;;;16.23;9.40;;;19.20;99.90;;;;;;5052716;28;20025;-73
2023/10/12 10:56:35;;;;;;;17.90;10.15;;;19.10;99.90;;;;;;5053638;28;20103;-72
2023/10/12 10:59:12;;;;;;;20.10;11.18;;;19.00;99.90;;;;;;5053656;28;20515;-72
2023/10/12 11:01:48;;;;;;;20.50;9.05;;;19.00;99.90;;;;;;5053821;28;20760;-72
2023/10/12 11:04:26;;;;;;;15.70;9.05;;;18.90;99.90;;;;;;5035907;28;20029;-73
2023/10/12 11:06:53;;;;;;;16.60;10.40;;;19.00;99.90;;;;;;5052762;28;20020;-74
2023/10/12 11:09:31;;;;;;;17.33;10.65;;;18.90;99.90;;;;;;5053171;28;20028;-72
2023/10/12 11:12:00;;;;;;;19.00;10.25;;;19.00;99.90;;;;;;5046817;28;20076;-73
2023/10/12 11:14:42;;;;;;;19.35;11.43;;;19.00;99.90;;;;;;5041569;28;20025;-72
2023/10/12 11:17:09;;;;;;;17.52;9.63;;;19.00;99.90;;;;;;5046604;28;20025;-72
2023/10/12 11:19:36;;;;;;;21.38;10.60;;;19.00;99.90;;;;;;5052625;28;20024;-73
2023/10/12 11:22:02;;;;;;;18.85;9.63;;;19.00;99.90;;;;;;5052271;28;20049;-73
2023/10/12 11:24:27;;;;;;;18.80;10.20;;;19.00;99.90;;;;;;5051892;28;20472;-73
2023/10/12 11:26:54;;;;;;;16.50;11.18;;;19.10;99.90;;;;;;5037993;28;20482;-72
2023/10/12 11:29:22;;;;;;;19.08;9.85;;;19.10;99.90;;;;;;5046095;28;20052;-73
2023/10/12 11:32:08;;;;;;;19.30;10.00;;;19.10;99.90;;;;;;5052881;28;20033;-74
2023/10/12 11:34:35;;;;;;;24.75;12.68;;;19.10;99.90;;;;;;5034543;28;20497;-72
2023/10/12 11:37:01;;;;;;;16.95;10.80;;;19.20;99.90;;;;;;5034814;28;20057;-74
2023/10/12 11:39:39;;;;;;;18.88;10.85;;;19.20;99.90;;;;;;5035117;28;20053;-74
2023/10/12 11:42:06;;;;;;;21.83;12.00;;;19.10;99.90;;;;;;5051977;28;20025;-74
2023/10/12 11:44:36;;;;;;;17.35;10.60;;;19.10;99.90;;;;;;5051881;28;20074;-72
2023/10/12 11:47:07;;;;;;;18.60;10.57;;;19.10;99.90;;;;;;5051572;28;20094;-73
2023/10/12 11:50:09;;;;;;;14.10;10.10;;;19.20;99.90;;;;;;5051475;28;20031;-74
2023/10/12 11:52:39;;;;;;;19.73;11.48;;;19.20;99.90;;;;;;5018180;28;20051;-74
2023/10/12 11:55:31;;;;;;;15.90;10.98;;;19.30;99.90;;;;;;5052672;28;20028;-74
2023/10/12 11:58:06;;;;;;;20.55;12.13;;;19.30;99.90;;;;;;5035098;28;20033;-74
2023/10/12 12:00:39;;;;;;;15.23;10.27;;;19.40;99.90;;;;;;5034535;28;20020;-73
2023/10/12 12:03:08;;;;;;;17.80;10.35;;;19.40;99.90;;;;;;5044405;28;20112;-74
2023/10/12 12:05:36;;;;;;;18.92;10.80;;;19.40;99.90;;;;;;5040332;28;20124;-73
2023/10/12 12:08:14;;;;;;;23.98;12.05;;;19.50;99.90;;;;;;5032754;28;20067;-73
2023/10/12 12:10:54;;;;;;;19.50;11.45;;;19.50;99.90;;;;;;5031693;28;20018;-73
2023/10/12 12:13:21;;;;;;;19.00;11.45;;;19.50;99.90;;;;;;5032813;28;20159;-74
2023/10/12 12:15:48;;;;;;;21.60;11.20;;;19.50;99.90;;;;;;5046837;28;20028;-73
2023/10/12 12:18:19;;;;;;;21.67;12.18;;;19.50;99.90;;;;;;5033601;28;20544;-72
2023/10/12 12:20:56;;;;;;;20.42;11.50;;;19.50;99.90;;;;;;5034239;28;20063;-74
2023/10/12 12:23:27;;;;;;;17.00;9.80;;;19.60;99.90;;;;;;5052116;28;20660;-74
2023/10/12 12:26:07;;;;;;;22.33;11.85;;;19.60;99.90;;;;;;5050795;28;20032;-73
2023/10/12 12:28:43;;;;;;;22.63;12.18;;;19.70;99.90;;;;;;5051441;28;20098;-73
2023/10/12 12:31:13;;;;;;;22.83;12.35;;;19.60;99.90;;;;;;5051893;28;20079;-74
2023/10/12 12:33:43;;;;;;;18.73;11.05;;;19.60;99.90;;;;;;5052317;28;20474;-76
2023/10/12 12:36:12;;;;;;;17.48;10.95;;;19.70;99.90;;;;;;5051609;28;20021;-75
2023/10/12 12:41:18;;;;;;;23.40;10.55;;;19.70;99.90;;;;;;5051965;28;20029;-73
2023/10/12 12:43:45;;;;;;;19.90;10.95;;;19.80;99.90;;;;;;5034428;28;20071;-73
2023/10/12 12:46:11;;;;;;;20.23;10.57;;;19.80;99.90;;;;;;5052023;28;20024;-78
2023/10/12 12:48:38;;;;;;;18.27;10.63;;;19.90;99.90;;;;;;5051841;28;20020;-75
2023/10/12 12:51:10;;;;;;;18.45;10.00;;;19.80;99.90;;;;;;5051101;28;20033;-77
2023/10/12 12:53:36;;;;;;;17.73;9.90;;;19.90;99.90;;;;;;5051390;28;20025;-76
2023/10/12 12:56:02;;;;;;;18.00;9.95;;;19.80;99.90;;;;;;5051588;28;20863;-75
2023/10/12 12:58:28;;;;;;;21.77;9.93;;;19.90;99.90;;;;;;5050666;28;20064;-76
2023/10/12 13:00:54;;;;;;;16.10;8.63;;;19.90;99.90;;;;;;5050743;28;20029;-76
2023/10/12 13:03:22;;;;;;;19.08;9.60;;;19.80;99.90;;;;;;5050335;28;20025;-73
2023/10/12 13:05:48;;;;;;;18.55;9.20;;;19.80;99.90;;;;;;5051959;28;20523;-76
2023/10/12 13:08:16;;;;;;;16.08;8.77;;;19.80;99.90;;;;;;5051210;28;20037;-74
2023/10/12 13:10:42;;;;;;;15.43;9.25;;;19.90;99.90;;;;;;5052120;28;20025;-73
2023/10/12 13:13:08;;;;;;;16.65;9.20;;;19.90;99.90;;;;;;5051678;28;20476;-73
2023/10/12 13:15:41;;;;;;;19.42;8.40;;;19.90;99.90;;;;;;5051815;28;20021;-73
2023/10/12 13:18:14;;;;;;;14.65;8.85;;;19.80;99.90;;;;;;5050054;28;20025;-74
2023/10/12 13:20:47;;;;;;;15.63;9.18;;;19.80;99.90;;;;;;5050917;28;20049;-75
2023/10/12 13:23:21;;;;;;;13.95;8.27;;;19.80;99.90;;;;;;5051043;28;20021;-79
2023/10/12 13:25:47;;;;;;;12.52;7.80;;;19.80;99.90;;;;;;5050775;28;20033;-74
2023/10/12 13:28:13;;;;;;;14.85;8.23;;;19.80;99.90;;;;;;5051530;28;20049;-75
2023/10/12 13:30:39;;;;;;;14.00;8.48;;;19.90;99.90;;;;;;5051248;28;20410;-74
2023/10/12 13:33:06;;;;;;;16.42;8.13;;;19.90;99.90;;;;;;5050918;28;20068;-74
2023/10/12 13:38:09;;;;;;;15.20;8.13;;;19.90;99.90;;;;;;5050590;28;20025;-75
2023/10/12 13:40:50;;;;;;;13.93;8.00;;;19.80;99.90;;;;;;5051295;28;20021;-73
2023/10/12 13:43:21;;;;;;;13.23;7.97;;;19.80;99.90;;;;;;5051181;28;20390;-77
2023/10/12 13:45:52;;;;;;;15.13;8.67;;;19.80;99.90;;;;;;5051245;28;20025;-74
2023/10/12 13:48:30;;;;;;;13.48;8.30;;;19.80;99.90;;;;;;5054813;28;20021;-74
2023/10/12 13:51:19;;;;;;;14.80;9.07;;;19.80;99.90;;;;;;5035699;28;20425;-74
2023/10/12 13:53:46;;;;;;;13.35;7.93;;;19.80;99.90;;;;;;5054754;28;20029;-73
2023/10/12 13:56:13;;;;;;;14.63;8.25;;;19.90;99.90;;;;;;5053940;28;20504;-77
2023/10/12 13:58:39;;;;;;;14.98;9.02;;;19.80;99.90;;;;;;5037244;28;20433;-75
2023/10/12 14:01:14;;;;;;;19.67;8.30;;;19.80;99.90;;;;;;5054128;28;20446;-73
2023/10/12 14:03:41;;;;;;;18.50;8.63;;;19.70;99.90;;;;;;5042071;28;20032;-75
2023/10/12 14:06:07;;;;;;;17.38;7.88;;;19.70;99.90;;;;;;5034989;28;20108;-75
2023/10/12 14:08:40;;;;;;;15.15;8.27;;;19.70;99.90;;;;;;5035042;28;20121;-77
2023/10/12 14:11:06;;;;;;;13.43;8.65;;;19.60;99.90;;;;;;5033767;28;20100;-73
2023/10/12 14:13:35;;;;;;;18.73;8.85;;;19.50;99.90;;;;;;5034736;28;20512;-77
2023/10/12 14:16:01;;;;;;;14.52;8.30;;;19.50;99.90;;;;;;5034318;28;20543;-76
2023/10/12 14:18:31;;;;;;;16.92;8.75;;;19.40;99.90;;;;;;5033782;28;20104;-76
2023/10/12 14:20:57;;;;;;;15.88;9.23;;;19.40;99.90;;;;;;5034444;28;20025;-78
2023/10/12 14:23:32;;;;;;;19.30;9.00;;;19.50;99.90;;;;;;5047678;28;20029;-75
2023/10/12 14:25:58;;;;;;;14.73;8.75;;;19.60;99.90;;;;;;5054374;28;20029;-74
2023/10/12 14:28:31;;;;;;;15.85;8.50;;;19.60;99.90;;;;;;5053705;28;20041;-76
2023/10/12 14:30:57;;;;;;;21.65;9.07;;;19.60;99.90;;;;;;5053549;28;20016;-76
2023/10/12 14:33:25;;;;;;;16.75;9.52;;;19.50;99.90;;;;;;5023973;28;20049;-76
2023/10/12 14:35:51;;;;;;;15.18;9.35;;;19.50;99.90;;;;;;5036857;28;20028;-75
2023/10/12 14:38:18;;;;;;;13.88;8.32;;;19.60;99.90;;;;;;5043186;28;20040;-75
2023/10/12 14:40:45;;;;;;;17.45;9.95;;;19.70;99.90;;;;;;5036658;28;20017;-73
2023/10/12 14:43:13;;;;;;;17.88;9.85;;;19.70;99.90;;;;;;5022982;28;20055;-75
2023/10/12 14:45:49;;;;;;;18.77;10.00;;;19.70;99.90;;;;;;5037420;28;20092;-75
2023/10/12 14:48:18;;;;;;;12.70;9.13;;;19.60;99.90;;;;;;5036730;28;20025;-75
2023/10/12 14:50:48;;;;;;;23.48;10.70;;;19.60;99.90;;;;;;5035705;28;20389;-76
2023/10/12 14:53:16;;;;;;;14.88;9.10;;;19.50;99.90;;;;;;5038722;28;20033;-75
2023/10/12 14:55:48;;;;;;;16.13;9.73;;;19.30;99.90;;;;;;5023116;28;20466;-75
2023/10/12 14:58:16;;;;;;;22.50;11.52;;;19.30;99.90;;;;;;5040083;28;20033;-75
2023/10/12 15:00:45;;;;;;;18.35;11.05;;;19.30;99.90;;;;;;5022415;28;20017;-74
2023/10/12 15:03:15;;;;;;;21.25;11.85;;;19.30;99.90;;;;;;5038639;28;20035;-74
2023/10/12 15:05:42;;;;;;;19.20;10.52;;;19.30;99.90;;;;;;5021381;28;20049;-73
2023/10/12 15:08:08;;;;;;;20.08;11.50;;;19.30;99.90;;;;;;5038911;28;20469;-74
2023/10/12 15:10:40;;;;;;;20.77;12.43;;;19.40;99.90;;;;;;5035098;28;20424;-74
2023/10/12 15:13:08;;;;;;;;;;;19.40;99.90;;;;;;5018662;28;20029;-73